createdAt,value
2023-03-25T00:02:01.231Z,9.82
2023-03-25T00:07:03.022Z,9.86
2023-03-25T00:12:06.511Z,9.94
2023-03-25T00:17:08.217Z,10.02
2023-03-25T00:22:09.889Z,10.08
2023-03-25T00:27:14.273Z,10.12
2023-03-25T00:32:16.065Z,10.13
2023-03-25T00:37:17.864Z,10.12
2023-03-25T00:42:26.390Z,10.03
2023-03-25T00:47:28.350Z,10.00
2023-03-25T00:52:30.052Z,9.97
2023-03-25T00:57:33.095Z,10.02
2023-03-25T01:02:34.990Z,10.03
2023-03-25T01:07:36.769Z,10.02
2023-03-25T01:12:41.902Z,9.97
2023-03-25T01:17:43.643Z,9.93
2023-03-25T01:22:45.367Z,9.83
2023-03-25T01:27:48.610Z,9.76
2023-03-25T01:32:50.779Z,9.70
2023-03-25T01:37:54.378Z,9.71
2023-03-25T01:42:57.422Z,9.71
2023-03-25T01:48:06.084Z,9.70
2023-03-25T01:53:07.767Z,9.70
2023-03-25T01:58:12.509Z,9.72
2023-03-25T02:03:14.484Z,9.72
2023-03-25T02:08:16.231Z,9.78
2023-03-25T02:13:19.371Z,9.83
2023-03-25T02:18:27.195Z,9.89
2023-03-25T02:23:58.280Z,9.91
2023-03-25T02:29:05.994Z,9.99
2023-03-25T02:34:14.748Z,10.01
2023-03-25T02:39:19.653Z,10.08
2023-03-25T02:44:25.089Z,10.08
2023-03-25T02:49:28.386Z,10.17
2023-03-25T02:54:33.368Z,10.21
2023-03-25T02:59:38.279Z,10.23
2023-03-25T03:04:47.610Z,10.23
2023-03-25T03:09:54.081Z,10.22
2023-03-25T03:15:05.144Z,10.12
2023-03-25T03:20:12.144Z,10.12
2023-03-25T03:25:20.316Z,10.03
2023-03-25T03:30:27.207Z,10.07
2023-03-25T03:35:31.762Z,10.01
2023-03-25T03:40:34.944Z,10.00
2023-03-25T03:45:38.638Z,10.01
2023-03-25T03:50:42.512Z,10.01
2023-03-25T03:55:47.011Z,10.05
2023-03-25T04:00:50.350Z,10.08
2023-03-25T04:05:53.872Z,10.05
2023-03-25T04:10:59.270Z,10.06
2023-03-25T04:16:01.290Z,10.08
2023-03-25T04:21:03.726Z,10.12
2023-03-25T04:26:07.951Z,10.04
2023-03-25T04:31:15.348Z,9.93
2023-03-25T04:36:17.359Z,9.95
2023-03-25T04:41:20.536Z,9.90
2023-03-25T04:46:22.391Z,9.89
2023-03-25T04:51:24.415Z,9.88
2023-03-25T04:56:27.891Z,9.85
2023-03-25T05:01:32.740Z,9.79
2023-03-25T05:06:35.512Z,9.72
2023-03-25T05:11:39.713Z,9.63
2023-03-25T05:16:41.556Z,9.61
2023-03-25T05:21:43.325Z,9.57
2023-03-25T05:26:46.422Z,9.57
2023-03-25T05:31:48.867Z,9.53
2023-03-25T05:36:54.189Z,9.59
2023-03-25T05:42:02.714Z,9.72
2023-03-25T05:47:04.392Z,9.80
2023-03-25T05:52:06.117Z,9.86
2023-03-25T05:57:09.271Z,9.86
2023-03-25T06:02:12.631Z,9.88
2023-03-25T06:07:19.687Z,9.86
2023-03-25T06:12:23.316Z,9.84
2023-03-25T06:17:25.133Z,9.86
2023-03-25T06:22:27.369Z,10.02
2023-03-25T06:27:34.109Z,9.94
2023-03-25T06:32:37.935Z,9.89
2023-03-25T06:37:39.764Z,10.01
2023-03-25T06:42:49.632Z,10.25
2023-03-25T06:48:11.668Z,10.05
2023-03-25T06:53:13.385Z,10.12
2023-03-25T06:58:16.772Z,10.18
2023-03-25T07:03:18.588Z,10.26
2023-03-25T07:08:20.473Z,10.32
2023-03-25T07:13:23.596Z,10.40
2023-03-25T07:18:25.400Z,10.42
2023-03-25T07:23:27.053Z,10.45
2023-03-25T07:28:30.149Z,10.52
2023-03-25T07:33:31.902Z,10.51
2023-03-25T07:38:33.723Z,10.64
2023-03-25T07:43:36.799Z,10.74
2023-03-25T07:48:54.371Z,10.63
2023-03-25T07:53:56.099Z,11.04
2023-03-25T07:59:09.480Z,11.17
2023-03-25T08:04:13.625Z,11.55
2023-03-25T08:09:15.362Z,11.91
2023-03-25T08:14:18.388Z,13.40
2023-03-25T08:19:20.294Z,13.08
2023-03-25T08:24:22.094Z,12.60
2023-03-25T08:29:25.163Z,12.07
2023-03-25T08:34:28.578Z,11.19
2023-03-25T08:39:37.031Z,10.82
2023-03-25T08:44:40.054Z,12.19
2023-03-25T08:49:41.741Z,16.25
2023-03-25T08:54:43.517Z,18.24
2023-03-25T08:59:46.533Z,17.47
2023-03-25T09:04:48.853Z,16.88
2023-03-25T09:09:50.590Z,16.09
2023-03-25T09:14:53.594Z,14.41
2023-03-25T09:19:56.974Z,13.33
2023-03-25T09:24:59.434Z,12.64
2023-03-25T09:30:03.358Z,12.59
2023-03-25T09:35:05.787Z,12.41
2023-03-25T09:40:10.439Z,12.20
2023-03-25T09:45:20.840Z,12.17
2023-03-25T09:50:22.572Z,12.30
2023-03-25T09:55:26.139Z,12.97
2023-03-25T10:00:29.586Z,12.41
2023-03-25T10:05:51.336Z,12.96
2023-03-25T10:10:56.446Z,12.08
2023-03-25T10:16:01.780Z,11.97
2023-03-25T10:21:05.393Z,13.91
2023-03-25T10:26:10.611Z,15.71
2023-03-25T10:31:15.959Z,14.62
2023-03-25T10:36:19.242Z,14.62
2023-03-25T10:41:24.428Z,13.77
2023-03-25T10:46:29.713Z,13.44
2023-03-25T10:51:32.445Z,13.68
2023-03-25T10:56:35.396Z,13.48
2023-03-25T11:01:39.508Z,13.83
2023-03-25T11:06:42.221Z,14.79
2023-03-25T11:11:44.070Z,19.55
2023-03-25T11:16:48.280Z,17.25
2023-03-25T11:21:53.381Z,15.78
2023-03-25T11:26:55.369Z,14.98
2023-03-25T11:32:05.500Z,14.31
2023-03-25T11:37:14.899Z,13.70
2023-03-25T11:42:32.533Z,13.20
2023-03-25T11:47:36.863Z,12.90
2023-03-25T11:52:40.608Z,12.68
2023-03-25T11:57:42.803Z,12.62
2023-03-25T12:02:46.119Z,12.77
2023-03-25T12:07:49.607Z,12.94
2023-03-25T12:12:56.735Z,13.08
2023-03-25T12:18:06.650Z,13.34
2023-03-25T12:23:14.438Z,13.13
2023-03-25T12:28:30.707Z,12.89
2023-03-25T12:33:40.992Z,13.00
2023-03-25T12:38:48.648Z,12.98
2023-03-25T12:43:57.797Z,13.11
2023-03-25T12:49:07.585Z,13.10
2023-03-25T12:54:17.068Z,12.77
2023-03-25T12:59:28.252Z,12.57
2023-03-25T13:04:40.602Z,12.82
2023-03-25T13:09:52.189Z,13.57
2023-03-25T13:14:57.300Z,13.47
2023-03-25T13:20:01.937Z,13.18
2023-03-25T13:25:05.374Z,13.14
2023-03-25T13:30:09.210Z,12.99
2023-03-25T13:35:15.234Z,13.12
2023-03-25T13:40:25.100Z,12.91
2023-03-25T13:45:27.940Z,13.52
2023-03-25T13:50:31.963Z,13.75
2023-03-25T13:55:35.066Z,13.76
2023-03-25T14:00:56.778Z,13.85
2023-03-25T14:06:21.516Z,13.66
2023-03-25T14:11:23.997Z,13.28
2023-03-25T14:16:27.432Z,12.71
2023-03-25T14:21:34.081Z,12.20
2023-03-25T14:26:36.124Z,12.19
2023-03-25T14:31:37.864Z,12.12
2023-03-25T14:37:12.872Z,11.90
2023-03-25T14:42:43.831Z,11.01
2023-03-25T14:47:52.621Z,10.78
2023-03-25T14:52:56.224Z,10.95
2023-03-25T14:58:00.640Z,11.03
2023-03-25T15:03:03.394Z,11.11
2023-03-25T15:08:14.241Z,11.17
2023-03-25T15:13:18.826Z,11.18
2023-03-25T15:18:53.739Z,11.10
2023-03-25T15:24:05.044Z,11.27
2023-03-25T15:29:20.678Z,11.49
2023-03-25T15:34:34.194Z,11.49
2023-03-25T15:39:41.415Z,11.34
2023-03-25T15:45:03.284Z,11.24
2023-03-25T15:50:31.608Z,11.10
2023-03-25T15:55:34.650Z,10.93
2023-03-25T16:00:40.637Z,11.03
2023-03-25T16:05:45.309Z,11.09
2023-03-25T16:10:47.008Z,10.98
2023-03-25T16:15:50.321Z,10.87
2023-03-25T16:20:54.333Z,10.75
2023-03-25T16:25:56.675Z,10.64
2023-03-25T16:30:59.878Z,10.54
2023-03-25T16:36:02.439Z,10.48
2023-03-25T16:41:07.348Z,10.41
2023-03-25T16:46:11.992Z,10.44
2023-03-25T16:51:14.673Z,10.44
2023-03-25T16:56:23.588Z,10.47
2023-03-25T17:01:28.587Z,10.46
2023-03-25T17:06:31.216Z,10.34
2023-03-25T17:11:33.018Z,10.20
2023-03-25T17:16:36.577Z,10.03
2023-03-25T17:21:38.526Z,10.04
2023-03-25T17:26:54.483Z,10.01
2023-03-25T17:31:58.450Z,9.98
2023-03-25T17:37:00.790Z,9.99
2023-03-25T17:42:04.231Z,9.99
2023-03-25T17:47:08.391Z,9.90
2023-03-25T17:52:11.163Z,9.84
2023-03-25T17:57:14.373Z,9.82
2023-03-25T18:02:17.545Z,9.85
2023-03-25T18:07:21.336Z,10.02
2023-03-25T18:12:23.175Z,9.89
2023-03-25T18:17:26.398Z,9.74
2023-03-25T18:22:28.152Z,9.60
2023-03-25T18:27:40.692Z,9.59
2023-03-25T18:32:46.972Z,9.60
2023-03-25T18:37:48.843Z,9.75
2023-03-25T18:42:51.283Z,9.52
2023-03-25T18:47:55.772Z,9.35
2023-03-25T18:52:58.698Z,9.31
2023-03-25T18:58:00.958Z,8.93
2023-03-25T19:03:04.376Z,8.71
2023-03-25T19:08:07.009Z,8.57
2023-03-25T19:13:09.212Z,8.58
2023-03-25T19:18:17.000Z,8.59
2023-03-25T19:23:18.830Z,8.58
2023-03-25T19:28:21.873Z,8.58
2023-03-25T19:33:25.374Z,8.57
2023-03-25T19:38:27.190Z,8.58
2023-03-25T19:43:29.567Z,8.54
2023-03-25T19:48:33.198Z,8.52
2023-03-25T19:53:34.885Z,8.57
2023-03-25T19:58:36.537Z,9.27
2023-03-25T20:03:41.155Z,9.55
2023-03-25T20:08:43.137Z,9.32
2023-03-25T20:13:44.832Z,9.06
2023-03-25T20:18:48.048Z,9.01
2023-03-25T20:23:49.724Z,8.93
2023-03-25T20:28:51.499Z,8.89
2023-03-25T20:33:55.913Z,8.89
2023-03-25T20:38:59.091Z,8.88
2023-03-25T20:44:00.887Z,8.87
2023-03-25T20:49:08.816Z,8.87
2023-03-25T20:54:10.903Z,8.88
2023-03-25T20:59:14.143Z,8.81
2023-03-25T21:04:17.646Z,8.77
2023-03-25T21:09:19.301Z,8.71
2023-03-25T21:14:21.043Z,8.71
2023-03-25T21:19:26.887Z,8.74
2023-03-25T21:24:28.694Z,8.70
2023-03-25T21:29:30.653Z,8.62
2023-03-25T21:34:33.675Z,8.59
2023-03-25T21:39:35.526Z,8.59
2023-03-25T21:44:37.310Z,8.64
2023-03-25T21:49:42.195Z,8.65
2023-03-25T21:54:48.363Z,8.68
2023-03-25T21:59:50.108Z,8.68
2023-03-25T22:04:53.189Z,8.71
2023-03-25T22:09:54.954Z,8.74
2023-03-25T22:14:56.783Z,8.75
2023-03-25T22:19:59.789Z,8.71
2023-03-25T22:25:02.062Z,8.73
2023-03-25T22:30:04.527Z,8.78
2023-03-25T22:35:08.835Z,8.77
2023-03-25T22:40:12.859Z,8.78
2023-03-25T22:45:14.671Z,8.82
2023-03-25T22:50:17.976Z,8.82
2023-03-25T22:55:19.702Z,8.86
2023-03-25T23:00:21.849Z,8.89
2023-03-25T23:05:24.932Z,8.86
2023-03-25T23:10:26.686Z,8.81
2023-03-25T23:15:29.994Z,8.81
2023-03-25T23:20:34.880Z,8.83
2023-03-25T23:25:36.605Z,8.79
2023-03-25T23:30:38.372Z,8.77
2023-03-25T23:35:41.403Z,8.78
2023-03-25T23:40:43.226Z,8.75
2023-03-25T23:45:44.948Z,8.75
2023-03-25T23:50:48.233Z,8.75
2023-03-25T23:55:51.445Z,8.71
